Time;durP1;ratioP1;P1;durP2;ratioP2;P2;SDS_P1;SDS_P2;PMS_P1;PMS_P2;Temp;Humidity;BMP_temperature;BMP_pressure;BME280_temperature;BME280_humidity;BME280_pressure;Samples;Min_cycle;Max_cycle;Signal;HPM_P1;HPM_P2
2022/05/01 00:01:06;;;;;;;15.27;10.63;;;5.50;99.90;;;;;;5031120;28;20038;-50
2022/05/01 00:03:33;;;;;;;16.30;11.40;;;5.50;99.90;;;;;;5018329;28;20655;-51
2022/05/01 00:06:00;;;;;;;16.40;10.60;;;5.40;99.90;;;;;;5020288;28;20080;-53
2022/05/01 00:08:26;;;;;;;18.73;11.45;;;5.40;99.90;;;;;;5018821;28;20053;-51
2022/05/01 00:10:52;;;;;;;16.00;11.30;;;5.50;99.90;;;;;;5019700;28;20072;-50
2022/05/01 00:13:17;;;;;;;15.70;10.77;;;5.40;99.90;;;;;;5019199;28;20041;-51
2022/05/01 00:15:43;;;;;;;15.30;11.23;;;5.50;99.90;;;;;;5031460;28;20509;-49
2022/05/01 00:18:09;;;;;;;15.00;11.65;;;5.50;99.90;;;;;;5039767;28;20045;-49
2022/05/01 00:20:34;;;;;;;16.13;11.13;;;5.40;99.90;;;;;;5038008;28;20049;-52
2022/05/01 00:23:00;;;;;;;14.73;10.57;;;5.40;99.90;;;;;;5039222;28;20041;-49
2022/05/01 00:25:26;;;;;;;16.17;10.77;;;5.30;99.90;;;;;;5037765;28;20076;-51
2022/05/01 00:27:52;;;;;;;15.60;10.93;;;5.40;99.90;;;;;;5039349;28;20044;-51
2022/05/01 00:30:18;;;;;;;19.33;13.05;;;5.20;99.90;;;;;;5038606;28;20046;-50
2022/05/01 00:38:12;;;;;;;20.20;13.52;;;5.20;99.90;;;;;;5037826;28;20125;-52
2022/05/01 00:40:38;;;;;;;17.08;11.02;;;5.20;99.90;;;;;;5021432;28;20077;-52
2022/05/01 00:43:04;;;;;;;16.25;11.18;;;5.20;99.90;;;;;;5037857;28;20057;-53
2022/05/01 00:45:31;;;;;;;17.75;11.32;;;5.20;99.90;;;;;;5038606;28;20054;-51
2022/05/01 00:47:57;;;;;;;15.95;10.95;;;5.20;99.90;;;;;;5039191;28;20473;-50
2022/05/01 00:50:24;;;;;;;15.20;10.52;;;5.20;99.90;;;;;;5037855;28;20050;-50
2022/05/01 00:52:51;;;;;;;19.33;12.13;;;5.00;99.90;;;;;;5039083;28;20096;-52
2022/05/01 00:55:17;;;;;;;17.27;11.73;;;5.10;99.90;;;;;;5037512;28;20540;-50
2022/05/01 00:57:47;;;;;;;16.50;11.98;;;5.10;99.90;;;;;;5039120;28;20113;-49
2022/05/01 01:00:16;;;;;;;18.38;11.55;;;5.10;99.90;;;;;;5018755;28;20042;-50
2022/05/01 01:02:42;;;;;;;18.55;12.40;;;4.90;99.90;;;;;;5022602;28;20046;-49
2022/05/01 01:05:08;;;;;;;17.40;12.48;;;5.00;99.90;;;;;;5023293;28;20041;-52
2022/05/01 01:07:34;;;;;;;20.05;12.50;;;4.90;99.90;;;;;;5021667;28;20049;-50
2022/05/01 01:10:00;;;;;;;14.93;11.73;;;5.00;99.90;;;;;;5023404;28;20046;-51
2022/05/01 01:15:11;;;;;;;16.35;10.93;;;4.90;99.90;;;;;;5030699;28;20052;-54
2022/05/01 01:17:41;;;;;;;17.15;11.90;;;4.90;99.90;;;;;;5041952;28;20041;-52
2022/05/01 01:20:17;;;;;;;15.00;10.68;;;4.80;99.90;;;;;;5041748;28;20041;-52
2022/05/01 01:22:47;;;;;;;16.55;11.13;;;4.80;99.90;;;;;;5042800;28;20052;-52
2022/05/01 01:25:14;;;;;;;15.40;10.45;;;4.90;99.90;;;;;;5023405;28;20059;-50
2022/05/01 01:27:41;;;;;;;16.35;11.10;;;4.80;99.90;;;;;;5024718;28;20064;-49
2022/05/01 01:32:52;;;;;;;15.82;10.20;;;4.80;99.90;;;;;;5041775;28;20636;-51
2022/05/01 01:35:22;;;;;;;15.13;10.52;;;4.70;99.90;;;;;;5042701;28;20041;-51
2022/05/01 01:37:49;;;;;;;16.02;10.57;;;4.60;99.90;;;;;;5040745;28;20110;-50
2022/05/01 01:40:28;;;;;;;15.00;10.45;;;4.60;99.90;;;;;;5042240;28;20056;-53
2022/05/01 01:42:55;;;;;;;15.90;10.18;;;4.60;99.90;;;;;;5040984;28;20041;-51
2022/05/01 01:45:22;;;;;;;16.15;10.07;;;4.60;99.90;;;;;;5042054;28;20116;-51
2022/05/01 01:47:50;;;;;;;19.02;10.48;;;4.60;99.90;;;;;;5041834;28;20080;-50
2022/05/01 01:50:17;;;;;;;20.40;10.00;;;4.50;99.90;;;;;;5041021;28;20091;-50
2022/05/01 01:52:47;;;;;;;55.70;10.57;;;4.40;99.90;;;;;;5041997;28;20065;-54
2022/05/01 01:55:17;;;;;;;84.95;10.38;;;4.30;99.90;;;;;;5040747;28;20111;-49
2022/05/01 01:57:45;;;;;;;33.10;9.82;;;4.30;99.90;;;;;;5041906;28;20101;-52
2022/05/01 02:00:12;;;;;;;19.23;9.27;;;4.30;99.90;;;;;;5021835;28;20056;-48
2022/05/01 02:02:38;;;;;;;18.58;9.65;;;4.20;99.90;;;;;;5021741;28;20573;-51
2022/05/01 02:05:05;;;;;;;19.75;8.68;;;4.20;99.90;;;;;;5022152;28;20081;-50
2022/05/01 02:07:31;;;;;;;14.90;8.23;;;4.30;99.90;;;;;;5020831;28;20441;-49
2022/05/01 02:09:57;;;;;;;12.75;8.43;;;4.30;99.90;;;;;;5022409;28;20065;-54
2022/05/01 02:12:23;;;;;;;12.40;8.48;;;4.20;99.90;;;;;;5019594;28;20509;-53
2022/05/01 02:14:49;;;;;;;12.50;8.13;;;4.20;99.90;;;;;;5027057;28;20030;-50
2022/05/01 02:17:15;;;;;;;15.85;8.30;;;4.10;99.90;;;;;;5040473;28;20052;-52
2022/05/01 02:19:41;;;;;;;12.18;7.30;;;4.10;99.90;;;;;;5041293;28;20045;-50
2022/05/01 02:22:08;;;;;;;10.80;7.35;;;4.20;99.90;;;;;;5041299;28;20057;-50
2022/05/01 02:24:34;;;;;;;10.25;7.03;;;4.20;99.90;;;;;;5040188;28;20532;-50
2022/05/01 02:27:00;;;;;;;9.43;6.82;;;4.30;99.90;;;;;;5042026;28;20071;-50
2022/05/01 02:29:27;;;;;;;10.13;7.00;;;4.30;99.90;;;;;;5022444;28;20053;-50
2022/05/01 02:31:56;;;;;;;11.93;7.80;;;4.30;99.90;;;;;;5041509;28;20041;-52
2022/05/01 02:34:23;;;;;;;10.13;7.55;;;4.30;99.90;;;;;;5040255;28;20072;-52
2022/05/01 02:36:52;;;;;;;11.23;7.50;;;4.20;99.90;;;;;;5040881;28;20547;-50
2022/05/01 02:39:19;;;;;;;10.68;7.32;;;4.10;99.90;;;;;;5041115;28;20053;-50
2022/05/01 02:41:45;;;;;;;10.68;7.25;;;4.10;99.90;;;;;;5039867;28;20033;-52
2022/05/01 02:44:11;;;;;;;10.75;7.75;;;4.10;99.90;;;;;;5041336;28;20049;-52
2022/05/01 02:46:37;;;;;;;12.20;7.45;;;4.20;99.90;;;;;;5022178;28;20053;-49
2022/05/01 02:49:05;;;;;;;9.80;6.85;;;4.10;99.90;;;;;;5040865;28;20065;-52
2022/05/01 02:51:31;;;;;;;11.25;7.47;;;4.10;99.90;;;;;;5039811;28;20581;-50
2022/05/01 02:53:58;;;;;;;11.20;7.60;;;4.20;99.90;;;;;;5040500;28;20053;-52
2022/05/01 02:56:24;;;;;;;10.93;7.30;;;4.10;99.90;;;;;;5040958;28;20054;-50
2022/05/01 02:58:50;;;;;;;10.45;6.97;;;4.00;99.90;;;;;;5039644;28;20071;-49
2022/05/01 03:01:16;;;;;;;11.13;7.82;;;4.10;99.90;;;;;;5031318;28;20398;-51
2022/05/01 03:03:41;;;;;;;11.65;7.05;;;4.10;99.90;;;;;;5019217;28;20534;-50
2022/05/01 03:06:08;;;;;;;11.25;6.88;;;4.10;99.90;;;;;;5003396;28;20058;-51
2022/05/01 03:08:34;;;;;;;9.95;6.90;;;4.10;99.90;;;;;;5019659;28;20053;-50
2022/05/01 03:11:01;;;;;;;10.40;7.30;;;4.10;99.90;;;;;;5020703;28;20041;-50
2022/05/01 03:13:27;;;;;;;11.02;6.57;;;4.10;99.90;;;;;;5020674;28;20038;-52
2022/05/01 03:15:52;;;;;;;10.77;7.63;;;4.10;99.90;;;;;;5033496;28;20045;-49
2022/05/01 03:23:49;;;;;;;14.73;8.02;;;4.00;99.90;;;;;;5039824;28;20111;-50
2022/05/01 03:26:18;;;;;;;18.52;10.90;;;4.00;99.90;;;;;;5039997;28;20049;-51
2022/05/01 03:28:47;;;;;;;22.48;11.85;;;4.00;99.90;;;;;;5039068;28;20045;-51
2022/05/01 03:31:14;;;;;;;14.90;9.57;;;4.00;99.90;;;;;;5040687;28;20107;-53
2022/05/01 03:33:42;;;;;;;15.60;9.13;;;3.80;99.90;;;;;;5038760;28;20050;-50
2022/05/01 03:36:09;;;;;;;13.75;8.88;;;3.80;99.90;;;;;;5040314;28;20053;-49
2022/05/01 03:38:39;;;;;;;11.63;7.75;;;3.70;99.90;;;;;;5021266;28;20045;-51
2022/05/01 03:41:06;;;;;;;11.88;7.82;;;3.70;99.90;;;;;;5039754;28;20589;-51
2022/05/01 03:43:33;;;;;;;12.02;7.95;;;3.70;99.90;;;;;;5039826;28;20041;-49
2022/05/01 03:46:00;;;;;;;11.93;7.93;;;3.70;99.90;;;;;;5038827;28;20057;-49
2022/05/01 03:48:25;;;;;;;10.43;7.28;;;3.50;99.90;;;;;;5040292;28;20041;-49
2022/05/01 03:50:53;;;;;;;11.73;7.50;;;3.60;99.90;;;;;;5038382;28;20065;-47
2022/05/01 03:53:19;;;;;;;10.57;7.13;;;3.60;99.90;;;;;;5039794;28;20041;-49
2022/05/01 03:55:45;;;;;;;10.95;7.10;;;3.60;99.90;;;;;;5020827;28;20064;-50
2022/05/01 03:58:11;;;;;;;9.98;6.70;;;3.60;99.90;;;;;;5039794;28;20102;-52
2022/05/01 04:00:37;;;;;;;10.15;6.82;;;3.60;99.90;;;;;;5034851;28;20045;-50
2022/05/01 04:03:03;;;;;;;10.57;6.70;;;3.60;99.90;;;;;;5018627;28;20049;-50
2022/05/01 04:05:28;;;;;;;9.18;6.63;;;3.50;99.90;;;;;;5020314;28;20857;-49
2022/05/01 04:07:54;;;;;;;10.40;6.70;;;3.40;99.90;;;;;;5018715;28;20037;-52
2022/05/01 04:10:20;;;;;;;9.63;6.63;;;3.50;99.90;;;;;;5019929;28;20038;-49
2022/05/01 04:12:46;;;;;;;9.88;6.40;;;3.50;99.90;;;;;;5018600;28;20060;-49
2022/05/01 04:15:14;;;;;;;9.55;5.97;;;3.50;99.90;;;;;;5027654;28;20037;-50
2022/05/01 04:17:41;;;;;;;9.45;6.97;;;3.40;99.90;;;;;;5039186;28;20056;-49
2022/05/01 04:20:13;;;;;;;10.63;6.43;;;3.40;99.90;;;;;;5038140;28;20096;-49
2022/05/01 04:22:44;;;;;;;10.20;6.82;;;3.50;99.90;;;;;;5039531;28;20045;-50
2022/05/01 04:25:16;;;;;;;11.57;7.15;;;3.40;99.90;;;;;;5037893;28;20045;-49
2022/05/01 04:27:46;;;;;;;11.15;7.65;;;3.40;99.90;;;;;;5039366;28;20056;-48
2022/05/01 04:30:14;;;;;;;11.35;7.25;;;3.40;99.90;;;;;;5038597;28;20072;-48
2022/05/01 04:33:01;;;;;;;10.20;7.00;;;3.50;99.90;;;;;;5038666;28;20060;-51
2022/05/01 04:35:33;;;;;;;9.55;6.68;;;3.50;99.90;;;;;;5039260;28;20054;-50
2022/05/01 04:38:03;;;;;;;9.93;6.68;;;3.40;99.90;;;;;;5037972;28;20049;-49
2022/05/01 04:40:38;;;;;;;9.50;6.32;;;3.50;99.90;;;;;;5039239;28;20037;-52
2022/05/01 04:43:12;;;;;;;9.30;6.43;;;3.50;99.90;;;;;;5038267;28;20045;-48
2022/05/01 04:45:40;;;;;;;9.70;6.63;;;3.60;99.90;;;;;;5038313;28;20076;-50
2022/05/01 04:48:07;;;;;;;9.50;6.05;;;3.70;99.90;;;;;;5039635;28;20132;-50
2022/05/01 04:50:34;;;;;;;11.82;7.18;;;3.60;99.90;;;;;;5037701;28;20049;-51
2022/05/01 04:53:01;;;;;;;11.38;7.25;;;3.70;99.90;;;;;;5039028;28;20054;-52
2022/05/01 04:55:28;;;;;;;11.60;6.28;;;3.80;99.90;;;;;;5037785;28;20064;-51
2022/05/01 04:57:54;;;;;;;9.32;6.60;;;3.50;99.90;;;;;;5039120;28;20045;-50
2022/05/01 05:00:19;;;;;;;18.73;6.07;;;3.70;99.90;;;;;;5035981;28;20056;-49
2022/05/01 05:02:48;;;;;;;8.02;5.55;;;3.50;99.90;;;;;;5018768;28;20042;-49
2022/05/01 05:05:15;;;;;;;21.73;6.90;;;3.50;99.90;;;;;;5019720;28;20041;-51
2022/05/01 05:07:41;;;;;;;8.88;6.65;;;3.50;99.90;;;;;;5017661;28;20042;-50
2022/05/01 05:10:08;;;;;;;57.88;9.57;;;3.60;99.90;;;;;;5001578;28;20077;-52
2022/05/01 05:12:35;;;;;;;45.35;9.32;;;3.70;99.90;;;;;;5000609;28;20457;-50
2022/05/01 05:15:09;;;;;;;43.95;8.52;;;3.90;99.90;;;;;;5007963;28;20464;-50
2022/05/01 05:17:35;;;;;;;10.50;7.80;;;3.80;99.90;;;;;;5020773;28;20052;-51
2022/05/01 05:20:01;;;;;;;11.73;7.50;;;4.00;99.90;;;;;;5020136;28;20056;-52
2022/05/01 05:22:27;;;;;;;9.63;7.22;;;4.00;99.90;;;;;;5039301;28;20057;-49
2022/05/01 05:24:53;;;;;;;9.30;7.30;;;4.20;99.90;;;;;;5037368;28;20133;-53
2022/05/01 05:27:21;;;;;;;9.95;7.07;;;4.30;99.90;;;;;;5021450;28;20053;-50
2022/05/01 05:29:47;;;;;;;9.38;6.70;;;4.60;99.90;;;;;;5019655;28;20056;-50
2022/05/01 05:32:13;;;;;;;9.88;7.47;;;4.80;99.90;;;;;;5038642;28;20053;-52
2022/05/01 05:34:39;;;;;;;9.68;6.70;;;4.90;99.90;;;;;;5038232;28;20046;-52
2022/05/01 05:37:05;;;;;;;9.13;6.53;;;5.00;99.90;;;;;;5038230;28;20529;-50
2022/05/01 05:39:30;;;;;;;9.40;7.30;;;5.10;99.90;;;;;;5039155;28;20054;-52
2022/05/01 05:41:56;;;;;;;10.20;7.40;;;5.20;99.90;;;;;;5037073;28;20079;-53
2022/05/01 05:44:22;;;;;;;10.60;7.80;;;5.30;99.90;;;;;;5038695;28;20176;-50
2022/05/01 05:46:48;;;;;;;11.25;7.93;;;5.40;99.90;;;;;;5033304;28;20033;-48
2022/05/01 05:49:13;;;;;;;10.48;7.90;;;5.60;99.90;;;;;;5038038;28;20109;-50
2022/05/01 05:51:39;;;;;;;11.52;8.90;;;5.70;99.90;;;;;;5038037;28;20408;-49
2022/05/01 05:54:05;;;;;;;13.07;8.68;;;5.80;99.90;;;;;;5037887;28;20536;-51
2022/05/01 05:56:32;;;;;;;13.02;8.55;;;6.00;99.90;;;;;;5039162;28;20073;-51
2022/05/01 05:58:59;;;;;;;13.85;9.50;;;6.00;99.90;;;;;;5037226;28;20064;-49
2022/05/01 06:01:25;;;;;;;13.15;8.93;;;6.10;99.90;;;;;;5027620;28;20050;-52
2022/05/01 06:03:51;;;;;;;13.40;10.02;;;6.30;99.90;;;;;;5017664;28;20107;-49
2022/05/01 06:06:18;;;;;;;12.25;8.95;;;6.40;99.90;;;;;;5018705;28;20548;-51
2022/05/01 06:08:44;;;;;;;15.20;9.63;;;6.50;99.90;;;;;;5017583;28;20157;-53
2022/05/01 06:11:10;;;;;;;12.38;8.77;;;6.70;99.90;;;;;;5014854;28;20042;-54
2022/05/01 06:13:36;;;;;;;12.75;9.43;;;6.80;99.90;;;;;;5007125;28;20042;-48
2022/05/01 06:16:02;;;;;;;13.95;9.48;;;6.90;99.90;;;;;;5009290;28;20054;-48
2022/05/01 06:18:28;;;;;;;15.27;9.93;;;7.10;99.90;;;;;;5007928;28;20046;-49
2022/05/01 06:20:53;;;;;;;15.77;10.48;;;7.20;99.90;;;;;;5007896;28;20105;-53
2022/05/01 06:23:20;;;;;;;15.35;10.48;;;7.50;99.90;;;;;;5018262;28;20038;-49
2022/05/01 06:25:47;;;;;;;13.77;9.80;;;7.40;99.90;;;;;;4999429;28;20045;-50
2022/05/01 06:28:14;;;;;;;15.38;10.40;;;7.60;99.90;;;;;;5017857;28;20045;-49
2022/05/01 06:30:43;;;;;;;15.38;9.75;;;7.60;99.90;;;;;;5018010;28;20041;-52
2022/05/01 06:33:12;;;;;;;13.57;9.32;;;7.80;99.90;;;;;;5016460;28;20092;-51
2022/05/01 06:35:39;;;;;;;16.27;9.60;;;7.90;99.90;;;;;;5018150;28;20102;-49
2022/05/01 06:38:04;;;;;;;12.77;8.57;;;7.90;99.90;;;;;;5016414;28;20042;-49
2022/05/01 06:40:30;;;;;;;12.93;8.48;;;8.10;99.90;;;;;;5017347;28;20053;-50
2022/05/01 06:42:56;;;;;;;13.95;8.13;;;8.10;99.90;;;;;;5016501;28;20050;-53
2022/05/01 06:45:21;;;;;;;12.40;8.27;;;8.20;99.90;;;;;;5017201;28;20042;-52
2022/05/01 06:47:47;;;;;;;11.25;8.18;;;8.20;99.90;;;;;;5000177;28;20190;-48
2022/05/01 06:50:13;;;;;;;11.25;7.75;;;8.30;99.90;;;;;;5016399;28;20042;-51
2022/05/01 06:52:38;;;;;;;12.35;7.97;;;8.30;99.90;;;;;;5018008;28;20557;-52
2022/05/01 06:55:05;;;;;;;10.30;7.20;;;8.40;99.90;;;;;;5016178;28;20092;-50
2022/05/01 06:57:30;;;;;;;10.65;8.50;;;8.50;99.90;;;;;;5017359;28;20050;-51
2022/05/01 06:59:56;;;;;;;12.98;8.48;;;8.70;99.90;;;;;;5016032;28;20087;-52
2022/05/01 07:02:22;;;;;;;11.95;8.60;;;8.70;99.90;;;;;;4998822;28;20487;-52
2022/05/01 07:04:47;;;;;;;11.63;9.15;;;8.80;99.90;;;;;;4997845;28;20093;-50
2022/05/01 07:07:13;;;;;;;12.93;8.95;;;8.90;99.90;;;;;;4996785;28;20101;-52
2022/05/01 07:09:39;;;;;;;13.20;8.35;;;9.10;99.90;;;;;;4997810;28;20062;-52
2022/05/01 07:12:06;;;;;;;11.25;7.95;;;9.30;99.90;;;;;;4996667;28;20089;-53
2022/05/01 07:14:32;;;;;;;11.10;6.50;;;9.40;99.90;;;;;;5003569;28;20045;-50
2022/05/01 07:16:58;;;;;;;12.48;7.78;;;9.50;99.90;;;;;;5018296;28;20092;-50
2022/05/01 07:19:23;;;;;;;12.57;8.13;;;9.50;99.90;;;;;;5037086;28;20057;-54
2022/05/01 07:21:50;;;;;;;12.68;8.55;;;9.50;99.90;;;;;;5035940;28;20060;-52
2022/05/01 07:24:16;;;;;;;13.75;8.57;;;9.60;99.90;;;;;;5035578;28;20045;-51
2022/05/01 07:26:41;;;;;;;11.77;7.63;;;9.60;99.90;;;;;;5037457;28;20084;-49
2022/05/01 07:29:08;;;;;;;13.32;7.82;;;9.60;99.90;;;;;;5035453;28;20049;-50
2022/05/01 07:31:33;;;;;;;11.27;8.07;;;9.60;99.90;;;;;;5019184;28;20060;-52
2022/05/01 07:33:59;;;;;;;12.38;8.52;;;9.60;99.90;;;;;;5035250;28;20034;-51
2022/05/01 07:36:25;;;;;;;13.55;7.75;;;9.60;99.90;;;;;;5036654;28;20866;-49
2022/05/01 07:38:50;;;;;;;12.77;7.78;;;9.60;99.90;;;;;;5018467;28;20045;-48
2022/05/01 07:41:17;;;;;;;13.50;9.15;;;9.70;99.90;;;;;;5036190;28;20048;-52
2022/05/01 07:43:43;;;;;;;13.40;8.38;;;9.70;99.90;;;;;;5037006;28;20056;-51
2022/05/01 07:46:09;;;;;;;13.18;7.85;;;9.60;99.90;;;;;;5034640;28;20114;-49
2022/05/01 07:48:35;;;;;;;13.15;7.97;;;9.70;99.90;;;;;;5036705;28;20148;-50
2022/05/01 07:51:01;;;;;;;11.68;7.50;;;9.80;99.90;;;;;;5035415;28;20055;-50
2022/05/01 07:53:27;;;;;;;11.45;7.57;;;9.90;99.90;;;;;;5036022;28;20093;-51
2022/05/01 07:55:53;;;;;;;10.98;7.70;;;9.90;99.90;;;;;;5035771;28;20128;-52
2022/05/01 07:58:21;;;;;;;14.57;7.00;;;10.00;99.90;;;;;;5017819;28;20049;-52
2022/05/01 08:00:48;;;;;;;10.07;6.35;;;10.20;99.90;;;;;;5030491;28;20846;-51
2022/05/01 08:05:58;;;;;;;9.50;6.97;;;10.60;99.90;;;;;;5016710;28;20652;-52
2022/05/01 08:08:25;;;;;;;10.90;7.18;;;10.50;99.90;;;;;;4997694;28;20066;-50
2022/05/01 08:10:51;;;;;;;12.30;7.00;;;10.40;99.90;;;;;;5015384;28;20080;-51
2022/05/01 08:13:17;;;;;;;12.23;6.97;;;10.60;99.90;;;;;;5016246;28;20073;-49
2022/05/01 08:15:43;;;;;;;12.05;8.07;;;10.80;99.90;;;;;;5027640;28;20080;-50
2022/05/01 08:21:05;;;;;;;11.50;6.57;;;10.90;99.90;;;;;;5034505;28;20159;-49
2022/05/01 08:23:32;;;;;;;11.07;7.05;;;10.90;99.90;;;;;;5035831;28;20588;-51
2022/05/01 08:26:03;;;;;;;11.65;6.38;;;10.90;99.90;;;;;;5035845;28;20053;-48
2022/05/01 08:28:35;;;;;;;10.57;6.50;;;11.10;99.90;;;;;;5035237;28;20057;-52
2022/05/01 08:31:01;;;;;;;8.75;5.20;;;11.10;99.90;;;;;;5018842;28;20057;-52
2022/05/01 08:33:28;;;;;;;9.93;5.50;;;11.00;99.90;;;;;;5033867;28;20120;-51
2022/05/01 08:35:54;;;;;;;9.68;4.85;;;10.90;99.90;;;;;;5035867;28;20033;-51
2022/05/01 08:38:23;;;;;;;10.00;5.70;;;11.10;99.90;;;;;;5033916;28;20048;-52
2022/05/01 08:40:51;;;;;;;10.18;5.85;;;11.10;99.90;;;;;;5035731;28;20071;-49
2022/05/01 08:43:20;;;;;;;10.88;5.85;;;11.20;99.90;;;;;;5035129;28;20038;-50
2022/05/01 08:46:10;;;;;;;9.93;5.45;;;11.20;99.90;;;;;;5033615;28;20053;-52
2022/05/01 08:48:54;;;;;;;11.70;5.70;;;11.20;99.90;;;;;;5035878;28;20049;-52
2022/05/01 08:51:21;;;;;;;8.43;5.07;;;11.10;99.90;;;;;;5034461;28;20204;-50
2022/05/01 08:53:48;;;;;;;10.48;6.00;;;11.10;99.90;;;;;;5034592;28;20840;-49
2022/05/01 08:56:15;;;;;;;12.52;5.90;;;11.30;99.90;;;;;;5017778;28;20080;-48
2022/05/01 08:58:41;;;;;;;8.50;4.78;;;11.20;99.90;;;;;;5033298;28;20049;-49
2022/05/01 09:01:08;;;;;;;8.32;5.55;;;11.30;99.90;;;;;;5027103;28;20042;-51
2022/05/01 09:03:35;;;;;;;10.25;5.40;;;11.20;99.90;;;;;;5014487;28;20552;-47
2022/05/01 09:06:01;;;;;;;9.10;5.82;;;11.30;99.90;;;;;;5016130;28;20042;-51
2022/05/01 09:08:29;;;;;;;9.07;5.50;;;11.30;99.90;;;;;;5014781;28;20042;-51
2022/05/01 09:10:55;;;;;;;10.35;5.25;;;11.20;99.90;;;;;;5015482;28;20052;-53
2022/05/01 09:13:24;;;;;;;8.63;5.30;;;11.20;99.90;;;;;;5015864;28;20060;-52
2022/05/01 09:15:50;;;;;;;8.63;5.40;;;11.30;99.90;;;;;;5028272;28;20057;-52
2022/05/01 09:18:17;;;;;;;9.50;5.95;;;11.30;99.90;;;;;;5018296;28;20623;-50
2022/05/01 09:21:04;;;;;;;9.07;5.13;;;11.10;99.90;;;;;;5034330;28;20149;-52
2022/05/01 09:24:05;;;;;;;9.77;5.22;;;11.20;99.90;;;;;;5038881;28;20132;-51
2022/05/01 09:26:37;;;;;;;11.93;6.68;;;11.10;99.90;;;;;;5039944;28;20062;-52
2022/05/01 09:29:02;;;;;;;10.95;6.05;;;11.20;99.90;;;;;;5037722;28;20047;-54
2022/05/01 09:31:48;;;;;;;10.35;6.28;;;11.30;99.90;;;;;;5039716;28;20084;-50
2022/05/01 09:34:25;;;;;;;9.60;5.70;;;11.40;99.90;;;;;;5037798;28;20049;-51
2022/05/01 09:36:51;;;;;;;9.13;5.25;;;11.50;99.90;;;;;;5038780;28;20041;-50
2022/05/01 09:39:23;;;;;;;9.90;5.45;;;11.60;99.90;;;;;;5021666;28;20037;-50
2022/05/01 09:41:50;;;;;;;9.27;5.43;;;11.50;99.90;;;;;;5037682;28;20088;-51
2022/05/01 09:44:17;;;;;;;8.55;5.10;;;11.50;99.90;;;;;;5039039;28;20054;-52
2022/05/01 09:46:47;;;;;;;11.10;5.35;;;11.50;99.90;;;;;;5037122;28;20045;-53
2022/05/01 09:49:16;;;;;;;9.70;5.25;;;11.60;99.90;;;;;;5038636;28;20045;-53
2022/05/01 09:51:56;;;;;;;10.43;5.97;;;11.40;99.90;;;;;;5038057;28;20041;-52
2022/05/01 09:54:24;;;;;;;10.00;5.85;;;11.50;99.90;;;;;;5019721;28;20065;-53
2022/05/01 09:57:00;;;;;;;9.82;5.75;;;11.50;99.90;;;;;;5038746;28;20045;-52
2022/05/01 09:59:28;;;;;;;9.85;5.68;;;11.50;99.90;;;;;;5037302;28;20092;-49
2022/05/01 10:02:07;;;;;;;10.52;5.15;;;11.70;99.90;;;;;;5023047;28;20049;-53
2022/05/01 10:04:35;;;;;;;8.27;4.63;;;11.90;99.90;;;;;;5017957;28;20056;-51
2022/05/01 10:07:02;;;;;;;9.23;5.60;;;12.00;99.90;;;;;;5018163;28;20824;-53
2022/05/01 10:09:32;;;;;;;8.27;5.80;;;12.20;99.90;;;;;;5018931;28;20108;-52
2022/05/01 10:11:59;;;;;;;10.80;5.65;;;12.30;99.90;;;;;;5017047;28;20053;-49
2022/05/01 10:14:29;;;;;;;8.85;5.85;;;12.20;99.90;;;;;;5020535;28;20034;-53
2022/05/01 10:16:56;;;;;;;9.35;6.65;;;12.30;99.90;;;;;;5036860;28;20108;-52
2022/05/01 10:19:23;;;;;;;10.18;5.97;;;11.90;99.90;;;;;;5037971;28;20034;-52
2022/05/01 10:21:51;;;;;;;9.45;5.88;;;12.00;99.90;;;;;;5036984;28;20049;-49
2022/05/01 10:24:18;;;;;;;9.85;5.78;;;12.00;99.90;;;;;;5036032;28;20049;-49
2022/05/01 10:27:10;;;;;;;11.88;5.68;;;11.90;99.90;;;;;;5037797;28;20049;-51
2022/05/01 10:33:08;;;;;;;11.90;5.80;;;12.10;99.90;;;;;;5037463;28;20088;-52
2022/05/01 10:36:10;;;;;;;10.13;5.75;;;12.20;99.90;;;;;;5038079;28;20053;-49
2022/05/01 10:38:55;;;;;;;8.82;5.00;;;12.50;99.90;;;;;;5037364;28;20056;-51
2022/05/01 10:41:22;;;;;;;10.60;6.05;;;12.60;99.90;;;;;;5037176;28;20053;-51
2022/05/01 10:43:56;;;;;;;8.40;5.18;;;12.40;99.90;;;;;;5020791;28;20059;-50
2022/05/01 10:46:21;;;;;;;8.48;5.28;;;12.40;99.90;;;;;;5036147;28;20057;-50
2022/05/01 10:48:48;;;;;;;8.55;5.32;;;12.50;99.90;;;;;;5037836;28;20076;-51
2022/05/01 10:51:34;;;;;;;10.23;5.65;;;12.60;99.90;;;;;;5036339;28;20555;-52
2022/05/01 10:54:18;;;;;;;9.85;5.65;;;12.50;99.90;;;;;;5037023;28;20096;-51
2022/05/01 10:56:46;;;;;;;10.23;5.50;;;12.70;99.90;;;;;;5038273;28;20088;-52
2022/05/01 10:59:30;;;;;;;11.23;5.60;;;12.70;99.90;;;;;;5036276;28;20056;-49
2022/05/01 11:02:16;;;;;;;9.48;5.07;;;12.50;99.90;;;;;;5019360;28;20115;-50
2022/05/01 11:04:42;;;;;;;9.48;4.80;;;12.80;99.90;;;;;;5008219;28;20076;-49
2022/05/01 11:07:16;;;;;;;7.43;4.47;;;12.90;99.90;;;;;;4987888;28;20043;-52
2022/05/01 11:09:47;;;;;;;7.75;4.65;;;12.80;99.90;;;;;;5007247;28;20655;-50
2022/05/01 11:12:15;;;;;;;7.13;4.03;;;12.80;99.90;;;;;;5016028;28;20093;-53
2022/05/01 11:14:57;;;;;;;7.95;3.80;;;13.00;99.90;;;;;;5021428;28;20041;-50
2022/05/01 11:17:49;;;;;;;10.77;5.40;;;13.20;99.90;;;;;;5036977;28;20044;-52
2022/05/01 11:20:23;;;;;;;8.68;4.63;;;13.40;99.90;;;;;;5035497;28;20057;-49
2022/05/01 11:22:50;;;;;;;10.05;4.88;;;13.30;99.90;;;;;;5036577;28;20037;-49
2022/05/01 11:25:22;;;;;;;10.70;5.82;;;13.50;99.90;;;;;;5035481;28;20060;-49
2022/05/01 11:27:53;;;;;;;10.05;4.50;;;13.30;99.90;;;;;;5036678;28;20083;-51
2022/05/01 11:30:22;;;;;;;7.82;4.30;;;13.60;99.90;;;;;;5036851;28;20443;-51
2022/05/01 11:32:52;;;;;;;8.60;4.40;;;13.80;99.90;;;;;;5035265;28;20053;-49
2022/05/01 11:35:19;;;;;;;8.25;4.80;;;13.80;99.90;;;;;;5037059;28;20080;-51
2022/05/01 11:38:04;;;;;;;6.78;4.35;;;13.70;99.90;;;;;;5035366;28;20049;-52
2022/05/01 11:40:30;;;;;;;8.43;4.22;;;13.70;99.90;;;;;;5036245;28;20057;-52
2022/05/01 11:43:19;;;;;;;7.50;4.53;;;13.70;99.90;;;;;;5035896;28;20045;-51
2022/05/01 11:45:46;;;;;;;6.90;4.18;;;13.80;99.90;;;;;;5017106;28;20049;-51
2022/05/01 11:48:17;;;;;;;7.72;4.18;;;13.80;99.90;;;;;;5019120;28;20060;-49
2022/05/01 11:50:44;;;;;;;8.60;4.60;;;13.20;99.90;;;;;;5034730;28;20076;-50
2022/05/01 11:53:38;;;;;;;7.10;4.40;;;13.60;99.90;;;;;;5035911;28;20072;-52
2022/05/01 12:04:36;;;;;;;7.30;4.05;;;13.80;99.90;;;;;;5016272;28;20084;-49
2022/05/01 12:07:09;;;;;;;7.90;4.00;;;13.80;99.90;;;;;;5015670;28;20813;-50
2022/05/01 12:09:40;;;;;;;7.82;3.70;;;14.00;99.90;;;;;;4999273;28;20058;-52
2022/05/01 12:12:08;;;;;;;8.48;3.65;;;14.20;99.90;;;;;;5015231;28;20038;-53
2022/05/01 12:14:34;;;;;;;6.80;3.90;;;14.20;99.90;;;;;;5019701;28;20045;-50
2022/05/01 12:17:00;;;;;;;7.00;3.20;;;14.30;99.90;;;;;;5017375;28;20038;-49
2022/05/01 12:19:39;;;;;;;6.45;3.95;;;14.00;99.90;;;;;;5036031;28;20048;-51
2022/05/01 12:22:06;;;;;;;10.68;4.30;;;14.20;99.90;;;;;;5035866;28;20052;-52
2022/05/01 12:24:33;;;;;;;8.65;3.92;;;14.30;99.90;;;;;;5034582;28;20037;-52
2022/05/01 12:26:59;;;;;;;9.02;4.35;;;14.20;99.90;;;;;;5036419;28;20037;-50
2022/05/01 12:29:26;;;;;;;9.13;4.45;;;14.30;99.90;;;;;;5034970;28;20468;-51
2022/05/01 12:32:02;;;;;;;7.70;4.43;;;14.40;99.90;;;;;;5036271;28;20048;-52
2022/05/01 12:34:52;;;;;;;6.80;4.25;;;14.50;99.90;;;;;;5035157;28;20057;-49
2022/05/01 12:37:19;;;;;;;6.95;3.90;;;14.50;99.90;;;;;;5033813;28;20513;-51
2022/05/01 12:40:02;;;;;;;8.38;4.40;;;14.70;99.90;;;;;;5036225;28;20044;-50
2022/05/01 12:45:23;;;;;;;6.75;4.20;;;15.10;99.90;;;;;;5034971;28;20064;-50
2022/05/01 12:47:50;;;;;;;7.50;4.47;;;15.40;99.90;;;;;;5036187;28;20049;-52
2022/05/01 12:50:19;;;;;;;7.80;4.00;;;15.50;99.90;;;;;;5034283;28;20790;-53
2022/05/01 12:52:47;;;;;;;7.75;4.22;;;15.70;99.90;;;;;;5035711;28;20049;-53
2022/05/01 12:55:19;;;;;;;8.63;4.63;;;15.60;99.90;;;;;;5034679;28;20120;-54
2022/05/01 12:57:55;;;;;;;7.47;4.22;;;15.60;99.90;;;;;;5037975;28;20076;-54
2022/05/01 13:00:45;;;;;;;7.15;4.65;;;15.50;99.90;;;;;;5036886;28;20129;-53
2022/05/01 13:03:21;;;;;;;8.65;4.30;;;15.40;98.40;;;;;;5018484;28;20046;-53
2022/05/01 13:06:02;;;;;;;8.10;4.15;;;15.20;99.90;;;;;;5020028;28;20041;-51
2022/05/01 13:08:33;;;;;;;7.47;3.85;;;15.30;99.40;;;;;;5019085;28;20034;-53
2022/05/01 13:11:12;;;;;;;8.13;4.28;;;15.60;99.90;;;;;;5019047;28;20046;-51
2022/05/01 13:13:57;;;;;;;8.65;4.50;;;15.70;99.00;;;;;;5020867;28;20100;-52
2022/05/01 13:16:30;;;;;;;7.93;3.55;;;16.00;98.80;;;;;;5038549;28;20112;-53
2022/05/01 13:19:16;;;;;;;6.78;3.47;;;16.00;98.00;;;;;;5042809;28;20578;-53
2022/05/01 13:21:48;;;;;;;7.15;3.88;;;15.80;97.10;;;;;;5041947;28;20465;-53
2022/05/01 13:24:41;;;;;;;7.85;3.88;;;15.90;98.50;;;;;;5041209;28;20508;-52
2022/05/01 13:27:09;;;;;;;7.80;3.80;;;15.60;97.60;;;;;;5021605;28;20064;-53
2022/05/01 13:29:37;;;;;;;8.27;3.83;;;15.50;98.60;;;;;;5041323;28;20131;-52
2022/05/01 13:32:06;;;;;;;7.28;3.83;;;15.50;98.20;;;;;;5042319;28;20064;-52